Terminal Aerodrome Forecast
Issued by NWS

Home | Current Version | Previous Version | Text Only | Print | Product List | Glossary On
Versions: 1 2 3 4 5 6 7 8 9 10 11 12 13
846
FTUS46 KMTR 061130
TAFSJC
TAF
KSJC 061130Z 0612/0712 VRB03KT P6SM SCT200
      TEMPO 0612/0616 4SM BR
     FM062100 31007KT P6SM SCT200
     FM070400 VRB03KT P6SM SKC
     FM071000 VRB03KT 6SM BR SKC=

USA.gov is the U.S. government's official web portal to all federal, state and local government web resources and services.